sensor_id;sensor_type;location;lat;lon;timestamp;P1;durP1;ratioP1;P2;durP2;ratioP2
46753;SDS011;32500;50.620;3.400;2023-11-22T00:02:15;118.57;;;56.53;;
46753;SDS011;32500;50.620;3.400;2023-11-22T00:04:40;118.40;;;56.13;;
46753;SDS011;32500;50.620;3.400;2023-11-22T00:07:06;118.53;;;55.95;;
46753;SDS011;32500;50.620;3.400;2023-11-22T00:09:31;117.75;;;55.88;;
46753;SDS011;32500;50.620;3.400;2023-11-22T00:11:57;117.63;;;55.35;;
46753;SDS011;32500;50.620;3.400;2023-11-22T00:14:25;117.85;;;55.80;;
46753;SDS011;32500;50.620;3.400;2023-11-22T00:16:51;118.90;;;55.67;;
46753;SDS011;32500;50.620;3.400;2023-11-22T00:19:16;118.35;;;55.78;;
46753;SDS011;32500;50.620;3.400;2023-11-22T00:21:47;117.40;;;56.03;;
46753;SDS011;32500;50.620;3.400;2023-11-22T00:24:12;117.88;;;56.05;;
46753;SDS011;32500;50.620;3.400;2023-11-22T00:26:38;118.28;;;57.03;;
46753;SDS011;32500;50.620;3.400;2023-11-22T00:29:04;118.68;;;56.13;;
46753;SDS011;32500;50.620;3.400;2023-11-22T00:31:30;117.10;;;56.10;;
46753;SDS011;32500;50.620;3.400;2023-11-22T00:33:55;117.47;;;56.20;;
46753;SDS011;32500;50.620;3.400;2023-11-22T00:36:21;118.53;;;57.67;;
46753;SDS011;32500;50.620;3.400;2023-11-22T00:38:47;116.97;;;56.20;;
46753;SDS011;32500;50.620;3.400;2023-11-22T00:41:13;117.32;;;55.63;;
46753;SDS011;32500;50.620;3.400;2023-11-22T00:43:39;117.30;;;55.90;;
46753;SDS011;32500;50.620;3.400;2023-11-22T00:46:05;116.20;;;55.50;;
46753;SDS011;32500;50.620;3.400;2023-11-22T00:48:31;117.75;;;55.97;;
46753;SDS011;32500;50.620;3.400;2023-11-22T00:50:57;116.82;;;55.47;;
46753;SDS011;32500;50.620;3.400;2023-11-22T00:53:22;117.15;;;55.97;;
46753;SDS011;32500;50.620;3.400;2023-11-22T00:55:48;117.32;;;56.13;;
46753;SDS011;32500;50.620;3.400;2023-11-22T00:58:14;118.55;;;56.13;;
46753;SDS011;32500;50.620;3.400;2023-11-22T01:00:40;116.85;;;55.78;;
46753;SDS011;32500;50.620;3.400;2023-11-22T01:03:05;115.85;;;55.40;;
46753;SDS011;32500;50.620;3.400;2023-11-22T01:05:34;117.32;;;55.85;;
46753;SDS011;32500;50.620;3.400;2023-11-22T01:07:59;117.47;;;56.00;;
46753;SDS011;32500;50.620;3.400;2023-11-22T01:10:25;117.60;;;56.65;;
46753;SDS011;32500;50.620;3.400;2023-11-22T01:12:50;117.50;;;56.38;;
46753;SDS011;32500;50.620;3.400;2023-11-22T01:15:16;119.30;;;56.88;;
46753;SDS011;32500;50.620;3.400;2023-11-22T01:17:42;117.32;;;55.70;;
46753;SDS011;32500;50.620;3.400;2023-11-22T01:20:07;117.18;;;56.22;;
46753;SDS011;32500;50.620;3.400;2023-11-22T01:22:35;118.30;;;56.38;;
46753;SDS011;32500;50.620;3.400;2023-11-22T01:25:03;116.57;;;56.00;;
46753;SDS011;32500;50.620;3.400;2023-11-22T01:27:29;117.70;;;56.17;;
46753;SDS011;32500;50.620;3.400;2023-11-22T01:29:55;118.30;;;56.75;;
46753;SDS011;32500;50.620;3.400;2023-11-22T01:32:22;117.15;;;56.50;;
46753;SDS011;32500;50.620;3.400;2023-11-22T01:34:47;117.78;;;56.80;;
46753;SDS011;32500;50.620;3.400;2023-11-22T01:37:13;117.30;;;55.78;;
46753;SDS011;32500;50.620;3.400;2023-11-22T01:39:39;116.80;;;55.92;;
46753;SDS011;32500;50.620;3.400;2023-11-22T01:42:06;117.05;;;56.03;;
46753;SDS011;32500;50.620;3.400;2023-11-22T01:44:32;116.10;;;55.72;;
46753;SDS011;32500;50.620;3.400;2023-11-22T01:46:58;116.93;;;56.42;;
46753;SDS011;32500;50.620;3.400;2023-11-22T01:49:24;117.07;;;56.50;;
46753;SDS011;32500;50.620;3.400;2023-11-22T01:51:49;117.32;;;56.45;;
46753;SDS011;32500;50.620;3.400;2023-11-22T01:54:15;117.18;;;56.22;;
46753;SDS011;32500;50.620;3.400;2023-11-22T01:56:43;118.03;;;56.17;;
46753;SDS011;32500;50.620;3.400;2023-11-22T01:59:10;115.95;;;55.83;;
46753;SDS011;32500;50.620;3.400;2023-11-22T02:01:36;117.70;;;56.30;;
46753;SDS011;32500;50.620;3.400;2023-11-22T02:04:02;117.13;;;56.05;;
46753;SDS011;32500;50.620;3.400;2023-11-22T02:06:28;117.70;;;55.83;;
46753;SDS011;32500;50.620;3.400;2023-11-22T02:08:56;116.95;;;56.53;;
46753;SDS011;32500;50.620;3.400;2023-11-22T02:11:22;117.40;;;55.92;;
46753;SDS011;32500;50.620;3.400;2023-11-22T02:13:49;116.35;;;55.47;;
46753;SDS011;32500;50.620;3.400;2023-11-22T02:16:15;115.65;;;55.53;;
46753;SDS011;32500;50.620;3.400;2023-11-22T02:18:43;116.30;;;55.80;;
46753;SDS011;32500;50.620;3.400;2023-11-22T02:21:09;116.53;;;55.55;;
46753;SDS011;32500;50.620;3.400;2023-11-22T02:23:36;116.15;;;55.67;;
46753;SDS011;32500;50.620;3.400;2023-11-22T02:26:01;116.05;;;55.85;;
46753;SDS011;32500;50.620;3.400;2023-11-22T02:28:27;116.00;;;55.60;;
46753;SDS011;32500;50.620;3.400;2023-11-22T02:30:53;117.07;;;56.05;;
46753;SDS011;32500;50.620;3.400;2023-11-22T02:33:19;116.20;;;56.20;;
46753;SDS011;32500;50.620;3.400;2023-11-22T02:35:45;117.03;;;55.60;;
46753;SDS011;32500;50.620;3.400;2023-11-22T02:38:11;117.28;;;55.42;;
46753;SDS011;32500;50.620;3.400;2023-11-22T02:40:36;116.05;;;55.78;;
46753;SDS011;32500;50.620;3.400;2023-11-22T02:43:03;116.38;;;55.92;;
46753;SDS011;32500;50.620;3.400;2023-11-22T02:45:33;115.97;;;55.70;;
46753;SDS011;32500;50.620;3.400;2023-11-22T02:47:59;116.22;;;55.83;;
46753;SDS011;32500;50.620;3.400;2023-11-22T02:50:28;116.28;;;55.47;;
46753;SDS011;32500;50.620;3.400;2023-11-22T02:52:54;117.47;;;56.17;;
46753;SDS011;32500;50.620;3.400;2023-11-22T02:55:20;116.30;;;55.83;;
46753;SDS011;32500;50.620;3.400;2023-11-22T02:57:45;116.53;;;55.97;;
46753;SDS011;32500;50.620;3.400;2023-11-22T03:00:11;116.97;;;56.20;;
46753;SDS011;32500;50.620;3.400;2023-11-22T03:02:40;116.32;;;56.28;;
46753;SDS011;32500;50.620;3.400;2023-11-22T03:05:10;116.45;;;55.55;;
46753;SDS011;32500;50.620;3.400;2023-11-22T03:07:36;115.10;;;55.17;;
46753;SDS011;32500;50.620;3.400;2023-11-22T03:10:02;116.05;;;55.70;;
46753;SDS011;32500;50.620;3.400;2023-11-22T03:12:29;115.47;;;55.55;;
46753;SDS011;32500;50.620;3.400;2023-11-22T03:14:54;115.80;;;55.63;;
46753;SDS011;32500;50.620;3.400;2023-11-22T03:17:24;116.50;;;55.95;;
46753;SDS011;32500;50.620;3.400;2023-11-22T03:19:51;116.65;;;55.90;;
46753;SDS011;32500;50.620;3.400;2023-11-22T03:22:16;115.28;;;55.03;;
46753;SDS011;32500;50.620;3.400;2023-11-22T03:24:42;115.55;;;55.33;;
46753;SDS011;32500;50.620;3.400;2023-11-22T03:27:08;115.20;;;55.30;;
46753;SDS011;32500;50.620;3.400;2023-11-22T03:29:35;115.72;;;55.20;;
46753;SDS011;32500;50.620;3.400;2023-11-22T03:32:03;115.72;;;55.25;;
46753;SDS011;32500;50.620;3.400;2023-11-22T03:34:29;115.53;;;55.20;;
46753;SDS011;32500;50.620;3.400;2023-11-22T03:36:54;116.22;;;55.65;;
46753;SDS011;32500;50.620;3.400;2023-11-22T03:39:20;115.88;;;55.75;;
46753;SDS011;32500;50.620;3.400;2023-11-22T03:41:45;115.53;;;55.65;;
46753;SDS011;32500;50.620;3.400;2023-11-22T03:44:11;116.28;;;55.38;;
46753;SDS011;32500;50.620;3.400;2023-11-22T03:46:37;116.00;;;55.70;;
46753;SDS011;32500;50.620;3.400;2023-11-22T03:49:06;115.72;;;55.67;;
46753;SDS011;32500;50.620;3.400;2023-11-22T03:51:32;116.15;;;55.80;;
46753;SDS011;32500;50.620;3.400;2023-11-22T03:53:59;115.97;;;55.67;;
46753;SDS011;32500;50.620;3.400;2023-11-22T03:56:25;117.60;;;56.53;;
46753;SDS011;32500;50.620;3.400;2023-11-22T03:58:51;116.40;;;55.83;;
46753;SDS011;32500;50.620;3.400;2023-11-22T04:01:17;116.63;;;56.03;;
46753;SDS011;32500;50.620;3.400;2023-11-22T04:03:43;115.60;;;55.45;;
46753;SDS011;32500;50.620;3.400;2023-11-22T04:06:09;116.93;;;56.05;;
46753;SDS011;32500;50.620;3.400;2023-11-22T04:08:35;116.90;;;55.88;;
46753;SDS011;32500;50.620;3.400;2023-11-22T04:11:00;116.15;;;55.97;;
46753;SDS011;32500;50.620;3.400;2023-11-22T04:13:27;115.38;;;55.45;;
46753;SDS011;32500;50.620;3.400;2023-11-22T04:15:52;116.88;;;56.13;;
46753;SDS011;32500;50.620;3.400;2023-11-22T04:18:18;116.53;;;55.35;;
46753;SDS011;32500;50.620;3.400;2023-11-22T04:20:43;115.03;;;55.38;;
46753;SDS011;32500;50.620;3.400;2023-11-22T04:23:09;115.00;;;55.28;;
46753;SDS011;32500;50.620;3.400;2023-11-22T04:25:36;114.90;;;55.28;;
46753;SDS011;32500;50.620;3.400;2023-11-22T04:28:02;114.93;;;55.58;;
46753;SDS011;32500;50.620;3.400;2023-11-22T04:30:28;116.18;;;56.03;;
46753;SDS011;32500;50.620;3.400;2023-11-22T04:32:53;116.28;;;56.13;;
46753;SDS011;32500;50.620;3.400;2023-11-22T04:35:19;118.20;;;56.38;;
46753;SDS011;32500;50.620;3.400;2023-11-22T04:37:45;116.70;;;55.72;;
46753;SDS011;32500;50.620;3.400;2023-11-22T04:40:11;115.78;;;55.67;;
46753;SDS011;32500;50.620;3.400;2023-11-22T04:42:39;115.63;;;56.05;;
46753;SDS011;32500;50.620;3.400;2023-11-22T04:45:05;116.28;;;55.97;;
46753;SDS011;32500;50.620;3.400;2023-11-22T04:47:31;116.30;;;56.00;;
46753;SDS011;32500;50.620;3.400;2023-11-22T04:49:57;115.85;;;56.30;;
46753;SDS011;32500;50.620;3.400;2023-11-22T04:52:23;116.97;;;56.22;;
46753;SDS011;32500;50.620;3.400;2023-11-22T04:54:48;115.00;;;55.38;;
46753;SDS011;32500;50.620;3.400;2023-11-22T04:57:14;116.05;;;55.75;;
46753;SDS011;32500;50.620;3.400;2023-11-22T04:59:40;115.70;;;55.58;;
46753;SDS011;32500;50.620;3.400;2023-11-22T05:02:06;116.07;;;56.13;;
46753;SDS011;32500;50.620;3.400;2023-11-22T05:04:32;116.50;;;56.20;;
46753;SDS011;32500;50.620;3.400;2023-11-22T05:06:58;116.15;;;55.90;;
46753;SDS011;32500;50.620;3.400;2023-11-22T05:09:23;115.90;;;56.25;;
46753;SDS011;32500;50.620;3.400;2023-11-22T05:11:49;116.35;;;56.22;;
46753;SDS011;32500;50.620;3.400;2023-11-22T05:14:16;115.38;;;55.92;;
46753;SDS011;32500;50.620;3.400;2023-11-22T05:16:42;115.40;;;55.55;;
46753;SDS011;32500;50.620;3.400;2023-11-22T05:19:08;116.05;;;55.75;;
46753;SDS011;32500;50.620;3.400;2023-11-22T05:21:34;115.75;;;56.05;;
46753;SDS011;32500;50.620;3.400;2023-11-22T05:23:59;116.00;;;55.70;;
46753;SDS011;32500;50.620;3.400;2023-11-22T05:26:25;116.28;;;55.72;;
46753;SDS011;32500;50.620;3.400;2023-11-22T05:28:52;116.25;;;55.90;;
46753;SDS011;32500;50.620;3.400;2023-11-22T05:31:19;117.72;;;55.90;;
46753;SDS011;32500;50.620;3.400;2023-11-22T05:33:45;116.28;;;55.67;;
46753;SDS011;32500;50.620;3.400;2023-11-22T05:36:11;116.13;;;55.60;;
46753;SDS011;32500;50.620;3.400;2023-11-22T05:38:37;114.95;;;55.78;;
46753;SDS011;32500;50.620;3.400;2023-11-22T05:41:03;119.90;;;56.33;;
46753;SDS011;32500;50.620;3.400;2023-11-22T05:43:28;114.10;;;55.25;;
46753;SDS011;32500;50.620;3.400;2023-11-22T05:45:54;116.18;;;56.20;;
46753;SDS011;32500;50.620;3.400;2023-11-22T05:48:20;116.22;;;56.28;;
46753;SDS011;32500;50.620;3.400;2023-11-22T05:50:46;115.82;;;55.83;;
46753;SDS011;32500;50.620;3.400;2023-11-22T05:53:13;116.65;;;56.95;;
46753;SDS011;32500;50.620;3.400;2023-11-22T05:55:44;117.25;;;56.30;;
46753;SDS011;32500;50.620;3.400;2023-11-22T05:58:13;116.90;;;56.72;;
46753;SDS011;32500;50.620;3.400;2023-11-22T06:00:42;116.38;;;56.05;;
46753;SDS011;32500;50.620;3.400;2023-11-22T06:03:08;118.38;;;56.03;;
46753;SDS011;32500;50.620;3.400;2023-11-22T06:05:35;117.05;;;56.63;;
46753;SDS011;32500;50.620;3.400;2023-11-22T06:08:00;115.88;;;55.90;;
46753;SDS011;32500;50.620;3.400;2023-11-22T06:10:26;122.32;;;56.47;;
46753;SDS011;32500;50.620;3.400;2023-11-22T06:12:51;120.82;;;56.55;;
46753;SDS011;32500;50.620;3.400;2023-11-22T06:15:17;118.07;;;57.00;;
46753;SDS011;32500;50.620;3.400;2023-11-22T06:17:45;119.50;;;56.25;;
46753;SDS011;32500;50.620;3.400;2023-11-22T06:20:12;123.97;;;56.40;;
46753;SDS011;32500;50.620;3.400;2023-11-22T06:22:38;117.53;;;55.85;;
46753;SDS011;32500;50.620;3.400;2023-11-22T06:25:07;122.35;;;57.03;;
46753;SDS011;32500;50.620;3.400;2023-11-22T06:27:38;116.72;;;56.40;;
46753;SDS011;32500;50.620;3.400;2023-11-22T06:30:05;121.40;;;56.65;;
46753;SDS011;32500;50.620;3.400;2023-11-22T06:32:31;116.63;;;56.35;;
46753;SDS011;32500;50.620;3.400;2023-11-22T06:34:57;123.30;;;56.95;;
46753;SDS011;32500;50.620;3.400;2023-11-22T06:37:23;121.43;;;57.05;;
46753;SDS011;32500;50.620;3.400;2023-11-22T06:39:49;123.90;;;57.00;;
46753;SDS011;32500;50.620;3.400;2023-11-22T06:42:15;124.68;;;56.72;;
46753;SDS011;32500;50.620;3.400;2023-11-22T06:44:41;118.30;;;56.10;;
46753;SDS011;32500;50.620;3.400;2023-11-22T06:47:07;119.93;;;56.55;;
46753;SDS011;32500;50.620;3.400;2023-11-22T06:49:33;120.97;;;57.05;;
46753;SDS011;32500;50.620;3.400;2023-11-22T06:51:59;119.20;;;56.15;;
46753;SDS011;32500;50.620;3.400;2023-11-22T06:54:25;119.55;;;57.10;;
46753;SDS011;32500;50.620;3.400;2023-11-22T06:56:51;122.35;;;56.88;;
46753;SDS011;32500;50.620;3.400;2023-11-22T06:59:17;121.90;;;56.15;;
46753;SDS011;32500;50.620;3.400;2023-11-22T07:01:43;120.32;;;56.45;;
46753;SDS011;32500;50.620;3.400;2023-11-22T07:04:10;119.97;;;56.40;;
46753;SDS011;32500;50.620;3.400;2023-11-22T07:06:36;127.85;;;56.03;;
46753;SDS011;32500;50.620;3.400;2023-11-22T07:09:03;120.65;;;56.47;;
46753;SDS011;32500;50.620;3.400;2023-11-22T07:11:29;118.80;;;56.63;;
46753;SDS011;32500;50.620;3.400;2023-11-22T07:13:56;122.68;;;57.25;;
46753;SDS011;32500;50.620;3.400;2023-11-22T07:16:22;133.80;;;70.22;;
46753;SDS011;32500;50.620;3.400;2023-11-22T07:18:49;132.43;;;66.78;;
46753;SDS011;32500;50.620;3.400;2023-11-22T07:21:16;132.00;;;64.63;;
46753;SDS011;32500;50.620;3.400;2023-11-22T07:23:45;128.00;;;63.00;;
46753;SDS011;32500;50.620;3.400;2023-11-22T07:26:11;127.32;;;61.63;;
46753;SDS011;32500;50.620;3.400;2023-11-22T07:28:39;128.02;;;62.83;;
46753;SDS011;32500;50.620;3.400;2023-11-22T07:31:07;133.35;;;63.97;;
46753;SDS011;32500;50.620;3.400;2023-11-22T07:33:33;130.85;;;63.75;;
46753;SDS011;32500;50.620;3.400;2023-11-22T07:35:58;129.15;;;62.70;;
46753;SDS011;32500;50.620;3.400;2023-11-22T07:38:24;129.10;;;62.72;;
46753;SDS011;32500;50.620;3.400;2023-11-22T07:40:50;127.60;;;62.13;;
46753;SDS011;32500;50.620;3.400;2023-11-22T07:43:16;128.25;;;61.90;;
46753;SDS011;32500;50.620;3.400;2023-11-22T07:45:42;125.22;;;61.67;;
46753;SDS011;32500;50.620;3.400;2023-11-22T07:48:10;127.88;;;61.22;;
46753;SDS011;32500;50.620;3.400;2023-11-22T07:50:37;128.25;;;62.20;;
46753;SDS011;32500;50.620;3.400;2023-11-22T07:53:04;127.93;;;61.67;;
46753;SDS011;32500;50.620;3.400;2023-11-22T07:55:30;129.27;;;64.22;;
46753;SDS011;32500;50.620;3.400;2023-11-22T07:57:55;128.23;;;64.38;;
46753;SDS011;32500;50.620;3.400;2023-11-22T08:00:22;130.48;;;63.97;;
46753;SDS011;32500;50.620;3.400;2023-11-22T08:02:48;129.82;;;63.30;;
46753;SDS011;32500;50.620;3.400;2023-11-22T08:05:14;134.85;;;63.97;;
46753;SDS011;32500;50.620;3.400;2023-11-22T08:07:41;127.60;;;63.47;;
46753;SDS011;32500;50.620;3.400;2023-11-22T08:10:09;133.48;;;63.10;;
46753;SDS011;32500;50.620;3.400;2023-11-22T08:12:42;132.55;;;63.20;;
46753;SDS011;32500;50.620;3.400;2023-11-22T08:15:09;130.60;;;61.70;;
46753;SDS011;32500;50.620;3.400;2023-11-22T08:17:38;130.38;;;63.10;;
46753;SDS011;32500;50.620;3.400;2023-11-22T08:20:05;126.95;;;62.35;;
46753;SDS011;32500;50.620;3.400;2023-11-22T08:22:31;128.45;;;61.63;;
46753;SDS011;32500;50.620;3.400;2023-11-22T08:25:01;126.88;;;61.63;;
46753;SDS011;32500;50.620;3.400;2023-11-22T08:27:28;126.75;;;61.45;;
46753;SDS011;32500;50.620;3.400;2023-11-22T08:29:54;125.55;;;61.20;;
46753;SDS011;32500;50.620;3.400;2023-11-22T08:32:19;128.68;;;64.25;;
46753;SDS011;32500;50.620;3.400;2023-11-22T08:34:48;131.75;;;66.72;;
46753;SDS011;32500;50.620;3.400;2023-11-22T08:37:14;133.98;;;67.28;;
46753;SDS011;32500;50.620;3.400;2023-11-22T08:39:40;134.70;;;68.38;;
46753;SDS011;32500;50.620;3.400;2023-11-22T08:42:06;134.00;;;67.55;;
46753;SDS011;32500;50.620;3.400;2023-11-22T08:44:35;135.25;;;69.72;;
46753;SDS011;32500;50.620;3.400;2023-11-22T08:47:01;138.30;;;69.18;;
46753;SDS011;32500;50.620;3.400;2023-11-22T08:49:28;137.30;;;69.10;;
46753;SDS011;32500;50.620;3.400;2023-11-22T08:51:54;143.15;;;71.68;;
46753;SDS011;32500;50.620;3.400;2023-11-22T08:54:19;141.07;;;73.65;;
46753;SDS011;32500;50.620;3.400;2023-11-22T08:56:45;137.95;;;72.50;;
46753;SDS011;32500;50.620;3.400;2023-11-22T08:59:13;137.95;;;71.05;;
46753;SDS011;32500;50.620;3.400;2023-11-22T09:01:41;136.27;;;70.15;;
46753;SDS011;32500;50.620;3.400;2023-11-22T09:04:10;136.23;;;71.05;;
46753;SDS011;32500;50.620;3.400;2023-11-22T09:06:47;140.60;;;71.75;;
46753;SDS011;32500;50.620;3.400;2023-11-22T09:09:13;137.68;;;71.68;;
46753;SDS011;32500;50.620;3.400;2023-11-22T09:11:40;137.18;;;71.10;;
46753;SDS011;32500;50.620;3.400;2023-11-22T09:14:06;136.25;;;70.43;;
46753;SDS011;32500;50.620;3.400;2023-11-22T09:16:38;136.85;;;70.75;;
46753;SDS011;32500;50.620;3.400;2023-11-22T09:19:04;138.77;;;70.28;;
46753;SDS011;32500;50.620;3.400;2023-11-22T09:21:31;138.50;;;70.00;;
46753;SDS011;32500;50.620;3.400;2023-11-22T09:23:57;136.38;;;69.50;;
46753;SDS011;32500;50.620;3.400;2023-11-22T09:26:24;132.23;;;67.28;;
46753;SDS011;32500;50.620;3.400;2023-11-22T09:28:49;133.70;;;68.43;;
46753;SDS011;32500;50.620;3.400;2023-11-22T09:31:15;133.95;;;68.28;;
46753;SDS011;32500;50.620;3.400;2023-11-22T09:33:45;137.00;;;69.45;;
46753;SDS011;32500;50.620;3.400;2023-11-22T09:36:11;139.13;;;71.47;;
46753;SDS011;32500;50.620;3.400;2023-11-22T09:41:07;140.25;;;70.57;;
46753;SDS011;32500;50.620;3.400;2023-11-22T09:43:34;137.68;;;69.80;;
46753;SDS011;32500;50.620;3.400;2023-11-22T09:48:34;138.00;;;71.53;;
46753;SDS011;32500;50.620;3.400;2023-11-22T09:53:38;139.00;;;72.35;;
46753;SDS011;32500;50.620;3.400;2023-11-22T09:56:10;162.15;;;91.70;;
46753;SDS011;32500;50.620;3.400;2023-11-22T09:58:37;167.77;;;91.13;;
46753;SDS011;32500;50.620;3.400;2023-11-22T10:01:08;168.85;;;94.13;;
46753;SDS011;32500;50.620;3.400;2023-11-22T10:03:36;168.15;;;94.63;;
46753;SDS011;32500;50.620;3.400;2023-11-22T10:06:02;166.32;;;95.60;;
46753;SDS011;32500;50.620;3.400;2023-11-22T10:08:29;165.05;;;93.47;;
46753;SDS011;32500;50.620;3.400;2023-11-22T10:10:55;167.18;;;90.22;;
46753;SDS011;32500;50.620;3.400;2023-11-22T10:13:21;160.50;;;88.13;;
46753;SDS011;32500;50.620;3.400;2023-11-22T10:15:47;158.32;;;88.07;;
46753;SDS011;32500;50.620;3.400;2023-11-22T10:18:14;155.73;;;84.30;;
46753;SDS011;32500;50.620;3.400;2023-11-22T10:20:40;154.23;;;83.03;;
46753;SDS011;32500;50.620;3.400;2023-11-22T10:25:49;152.27;;;81.70;;
46753;SDS011;32500;50.620;3.400;2023-11-22T10:28:17;150.23;;;79.97;;
46753;SDS011;32500;50.620;3.400;2023-11-22T10:30:45;149.65;;;81.30;;
46753;SDS011;32500;50.620;3.400;2023-11-22T10:33:11;146.68;;;79.35;;
46753;SDS011;32500;50.620;3.400;2023-11-22T10:35:39;145.57;;;76.72;;
46753;SDS011;32500;50.620;3.400;2023-11-22T10:38:08;148.77;;;77.20;;
46753;SDS011;32500;50.620;3.400;2023-11-22T10:40:35;145.43;;;75.97;;
46753;SDS011;32500;50.620;3.400;2023-11-22T10:43:06;144.00;;;75.45;;
46753;SDS011;32500;50.620;3.400;2023-11-22T10:45:33;143.38;;;74.93;;
46753;SDS011;32500;50.620;3.400;2023-11-22T10:48:00;146.23;;;74.78;;
46753;SDS011;32500;50.620;3.400;2023-11-22T10:50:26;145.82;;;74.68;;
46753;SDS011;32500;50.620;3.400;2023-11-22T10:52:53;140.07;;;72.53;;
46753;SDS011;32500;50.620;3.400;2023-11-22T10:55:28;142.07;;;72.25;;
46753;SDS011;32500;50.620;3.400;2023-11-22T10:58:03;142.23;;;73.10;;
46753;SDS011;32500;50.620;3.400;2023-11-22T11:00:32;141.10;;;73.80;;
46753;SDS011;32500;50.620;3.400;2023-11-22T11:03:01;141.82;;;71.57;;
46753;SDS011;32500;50.620;3.400;2023-11-22T11:05:34;143.27;;;72.10;;
46753;SDS011;32500;50.620;3.400;2023-11-22T11:08:12;141.07;;;71.10;;
46753;SDS011;32500;50.620;3.400;2023-11-22T11:13:10;139.75;;;70.85;;
46753;SDS011;32500;50.620;3.400;2023-11-22T11:15:37;140.52;;;70.68;;
46753;SDS011;32500;50.620;3.400;2023-11-22T11:18:05;140.07;;;70.53;;
46753;SDS011;32500;50.620;3.400;2023-11-22T11:20:33;138.90;;;71.40;;
46753;SDS011;32500;50.620;3.400;2023-11-22T11:23:19;144.25;;;70.60;;
46753;SDS011;32500;50.620;3.400;2023-11-22T11:25:47;143.68;;;71.60;;
46753;SDS011;32500;50.620;3.400;2023-11-22T11:28:26;139.30;;;70.03;;
46753;SDS011;32500;50.620;3.400;2023-11-22T11:31:07;141.23;;;70.97;;
46753;SDS011;32500;50.620;3.400;2023-11-22T11:33:34;140.13;;;69.70;;
46753;SDS011;32500;50.620;3.400;2023-11-22T11:36:22;135.82;;;68.15;;
46753;SDS011;32500;50.620;3.400;2023-11-22T11:38:49;138.13;;;69.57;;
46753;SDS011;32500;50.620;3.400;2023-11-22T11:41:17;136.65;;;68.82;;
46753;SDS011;32500;50.620;3.400;2023-11-22T11:43:43;135.13;;;67.68;;
46753;SDS011;32500;50.620;3.400;2023-11-22T11:46:13;136.32;;;68.10;;
46753;SDS011;32500;50.620;3.400;2023-11-22T11:48:58;134.85;;;67.45;;
46753;SDS011;32500;50.620;3.400;2023-11-22T11:51:24;135.98;;;67.32;;
46753;SDS011;32500;50.620;3.400;2023-11-22T11:53:52;138.77;;;68.55;;
46753;SDS011;32500;50.620;3.400;2023-11-22T11:56:20;134.77;;;66.78;;
46753;SDS011;32500;50.620;3.400;2023-11-22T11:58:46;135.77;;;67.78;;
46753;SDS011;32500;50.620;3.400;2023-11-22T12:01:17;134.30;;;66.43;;
46753;SDS011;32500;50.620;3.400;2023-11-22T12:03:46;135.50;;;66.15;;
46753;SDS011;32500;50.620;3.400;2023-11-22T12:06:16;137.15;;;67.30;;
46753;SDS011;32500;50.620;3.400;2023-11-22T12:08:43;135.43;;;66.28;;
46753;SDS011;32500;50.620;3.400;2023-11-22T12:11:09;137.23;;;65.60;;
46753;SDS011;32500;50.620;3.400;2023-11-22T12:13:35;134.95;;;66.40;;
46753;SDS011;32500;50.620;3.400;2023-11-22T12:16:04;135.27;;;66.28;;
46753;SDS011;32500;50.620;3.400;2023-11-22T12:18:40;134.82;;;66.07;;
46753;SDS011;32500;50.620;3.400;2023-11-22T12:21:08;133.98;;;65.82;;
46753;SDS011;32500;50.620;3.400;2023-11-22T12:23:38;139.00;;;67.05;;
46753;SDS011;32500;50.620;3.400;2023-11-22T12:26:04;139.90;;;65.90;;
46753;SDS011;32500;50.620;3.400;2023-11-22T12:28:34;135.55;;;66.00;;
46753;SDS011;32500;50.620;3.400;2023-11-22T12:31:06;137.60;;;66.25;;
46753;SDS011;32500;50.620;3.400;2023-11-22T12:33:36;133.98;;;65.93;;
46753;SDS011;32500;50.620;3.400;2023-11-22T12:36:04;133.65;;;66.68;;
46753;SDS011;32500;50.620;3.400;2023-11-22T12:38:31;134.57;;;65.88;;
46753;SDS011;32500;50.620;3.400;2023-11-22T12:40:57;133.57;;;64.97;;
46753;SDS011;32500;50.620;3.400;2023-11-22T12:43:24;131.48;;;64.45;;
46753;SDS011;32500;50.620;3.400;2023-11-22T12:46:03;135.60;;;65.03;;
46753;SDS011;32500;50.620;3.400;2023-11-22T12:48:35;135.43;;;65.15;;
46753;SDS011;32500;50.620;3.400;2023-11-22T12:51:01;134.05;;;65.45;;
46753;SDS011;32500;50.620;3.400;2023-11-22T12:53:27;134.35;;;64.65;;
46753;SDS011;32500;50.620;3.400;2023-11-22T12:55:55;137.10;;;64.82;;
46753;SDS011;32500;50.620;3.400;2023-11-22T12:58:22;133.75;;;64.93;;
46753;SDS011;32500;50.620;3.400;2023-11-22T13:00:49;133.85;;;64.72;;
46753;SDS011;32500;50.620;3.400;2023-11-22T13:03:25;133.70;;;64.38;;
46753;SDS011;32500;50.620;3.400;2023-11-22T13:05:52;134.07;;;64.15;;
46753;SDS011;32500;50.620;3.400;2023-11-22T13:08:18;133.52;;;64.15;;
46753;SDS011;32500;50.620;3.400;2023-11-22T13:10:48;135.45;;;63.80;;
46753;SDS011;32500;50.620;3.400;2023-11-22T13:13:23;131.02;;;64.65;;
46753;SDS011;32500;50.620;3.400;2023-11-22T13:15:50;134.45;;;63.78;;
46753;SDS011;32500;50.620;3.400;2023-11-22T13:18:16;133.50;;;64.30;;
46753;SDS011;32500;50.620;3.400;2023-11-22T13:20:42;132.25;;;63.40;;
46753;SDS011;32500;50.620;3.400;2023-11-22T13:23:09;131.60;;;62.95;;
46753;SDS011;32500;50.620;3.400;2023-11-22T13:28:12;136.15;;;62.75;;
46753;SDS011;32500;50.620;3.400;2023-11-22T13:30:38;131.85;;;63.05;;
46753;SDS011;32500;50.620;3.400;2023-11-22T13:33:03;131.98;;;63.72;;
46753;SDS011;32500;50.620;3.400;2023-11-22T13:35:30;133.38;;;63.55;;
46753;SDS011;32500;50.620;3.400;2023-11-22T13:37:59;133.38;;;63.05;;
46753;SDS011;32500;50.620;3.400;2023-11-22T13:43:02;132.07;;;62.97;;
46753;SDS011;32500;50.620;3.400;2023-11-22T13:45:28;130.55;;;63.28;;
46753;SDS011;32500;50.620;3.400;2023-11-22T13:47:54;133.50;;;62.85;;
46753;SDS011;32500;50.620;3.400;2023-11-22T13:50:28;131.23;;;62.65;;
46753;SDS011;32500;50.620;3.400;2023-11-22T13:52:54;132.77;;;62.80;;
46753;SDS011;32500;50.620;3.400;2023-11-22T13:55:21;131.30;;;63.05;;
46753;SDS011;32500;50.620;3.400;2023-11-22T13:57:52;130.75;;;62.35;;
46753;SDS011;32500;50.620;3.400;2023-11-22T14:00:18;133.07;;;64.32;;
46753;SDS011;32500;50.620;3.400;2023-11-22T14:02:51;131.63;;;62.88;;
46753;SDS011;32500;50.620;3.400;2023-11-22T14:05:18;131.38;;;62.70;;
46753;SDS011;32500;50.620;3.400;2023-11-22T14:07:44;131.57;;;63.88;;
46753;SDS011;32500;50.620;3.400;2023-11-22T14:10:10;132.63;;;63.22;;
46753;SDS011;32500;50.620;3.400;2023-11-22T14:12:36;130.88;;;62.72;;
46753;SDS011;32500;50.620;3.400;2023-11-22T14:15:02;131.98;;;63.53;;
46753;SDS011;32500;50.620;3.400;2023-11-22T14:17:32;133.65;;;62.95;;
46753;SDS011;32500;50.620;3.400;2023-11-22T14:19:58;134.15;;;63.13;;
46753;SDS011;32500;50.620;3.400;2023-11-22T14:22:23;135.82;;;63.72;;
46753;SDS011;32500;50.620;3.400;2023-11-22T14:24:49;133.60;;;63.55;;
46753;SDS011;32500;50.620;3.400;2023-11-22T14:27:16;133.30;;;64.47;;